Terminal Aerodrome Forecast
Issued by NWS

Home | Current Version | Previous Version | Graphics & Text | Print | Product List | Glossary On
Versions: 1 2 3 4 5 6 7 8 9 10 11 12 13 14 15 16 17 18 19 20 21 22 23 24 25 26 27
000
FTUS42 KMHX 220538
TAFPGV
TAF
KPGV 220538Z 2206/2306 00000KT 6SM BR SCT005
     FM220730 00000KT 3SM BR VCSH OVC005
     FM221000 04005KT 3/4SM BR VCSH OVC002
     FM221200 05006KT 5SM BR VCSH OVC007
     FM221500 06007KT P6SM BKN012
     FM221800 06007KT P6SM SHRA BKN020
     FM230000 05006KT P6SM OVC015
     FM230200 04006KT 5SM BR OVC007
      AMD LTD TO CLD VIS AND WIND=

USA.gov is the U.S. government's official web portal to all federal, state and local government web resources and services.